Time;durP1;ratioP1;P1;durP2;ratioP2;P2;SDS_P1;SDS_P2;PMS_P1;PMS_P2;Temp;Humidity;BMP_temperature;BMP_pressure;BME280_temperature;BME280_humidity;BME280_pressure;Samples;Min_cycle;Max_cycle;Signal;HPM_P1;HPM_P2
2021/09/01 00:01:03;;;;;;;8.93;6.07;;;16.50;99.90;;;;;;5117371;27;20679;-37
2021/09/01 00:03:29;;;;;;;11.20;6.37;;;16.50;99.90;;;;;;5127169;27;20603;-38
2021/09/01 00:05:54;;;;;;;7.73;5.57;;;16.50;99.90;;;;;;5128188;27;20424;-37
2021/09/01 00:08:20;;;;;;;9.97;5.70;;;16.50;99.90;;;;;;5127428;27;20203;-36
2021/09/01 00:10:46;;;;;;;10.40;5.63;;;16.50;99.90;;;;;;5127903;27;20443;-37
2021/09/01 00:13:12;;;;;;;7.20;4.87;;;16.50;99.90;;;;;;5127069;27;20187;-37
2021/09/01 00:15:37;;;;;;;10.93;6.13;;;16.50;99.90;;;;;;5110414;27;20195;-36
2021/09/01 00:18:03;;;;;;;12.37;6.37;;;16.50;99.90;;;;;;5126819;27;20183;-37
2021/09/01 00:20:29;;;;;;;11.73;5.23;;;16.40;99.90;;;;;;5127744;27;20193;-36
2021/09/01 00:22:55;;;;;;;10.80;5.83;;;16.30;99.90;;;;;;5108683;27;20205;-37
2021/09/01 00:25:21;;;;;;;11.73;5.77;;;16.30;99.90;;;;;;5127586;27;20182;-37
2021/09/01 00:27:47;;;;;;;8.13;5.30;;;16.40;99.90;;;;;;5127560;27;20417;-37
2021/09/01 00:30:14;;;;;;;8.97;5.10;;;16.40;99.90;;;;;;5116835;27;20798;-37
2021/09/01 00:32:39;;;;;;;6.67;5.20;;;16.40;99.90;;;;;;5119732;27;20416;-36
2021/09/01 00:35:06;;;;;;;13.10;7.37;;;16.40;99.90;;;;;;5123624;27;20429;-37
2021/09/01 00:37:32;;;;;;;9.90;5.87;;;16.40;99.90;;;;;;5127245;27;20217;-37
2021/09/01 00:39:58;;;;;;;7.63;5.70;;;16.40;99.90;;;;;;5127270;27;20463;-36
2021/09/01 00:42:23;;;;;;;9.63;5.37;;;16.40;99.90;;;;;;5108390;27;20217;-37
2021/09/01 00:44:49;;;;;;;8.70;5.97;;;16.40;99.90;;;;;;5121264;27;20567;-36
2021/09/01 00:47:16;;;;;;;12.10;5.80;;;16.30;99.90;;;;;;5123090;27;20251;-36
2021/09/01 00:49:42;;;;;;;13.67;5.60;;;16.40;99.90;;;;;;5127149;27;20194;-37
2021/09/01 00:52:08;;;;;;;9.53;5.00;;;16.40;99.90;;;;;;5126719;27;20507;-37
2021/09/01 00:54:34;;;;;;;9.30;5.87;;;16.40;99.90;;;;;;5126801;27;20282;-37
2021/09/01 00:57:07;;;;;;;7.40;4.60;;;16.30;99.90;;;;;;5126843;27;20213;-37
2021/09/01 00:59:37;;;;;;;10.17;5.57;;;16.30;99.90;;;;;;5123460;27;20518;-37
2021/09/01 01:02:03;;;;;;;8.20;5.27;;;16.30;99.90;;;;;;5121638;27;21001;-36
2021/09/01 01:04:33;;;;;;;9.33;5.37;;;16.30;99.90;;;;;;5126881;27;20408;-37
2021/09/01 01:07:07;;;;;;;7.80;5.07;;;16.30;99.90;;;;;;5126713;27;20837;-36
2021/09/01 01:09:34;;;;;;;9.23;5.17;;;16.20;99.90;;;;;;5126867;27;20918;-36
2021/09/01 01:12:01;;;;;;;8.20;5.07;;;16.20;99.90;;;;;;5126539;27;20444;-36
2021/09/01 01:14:27;;;;;;;7.60;5.20;;;16.20;99.90;;;;;;5115583;27;20836;-37
2021/09/01 01:16:53;;;;;;;9.80;5.47;;;16.20;99.90;;;;;;5119123;27;20477;-37
2021/09/01 01:19:20;;;;;;;8.50;5.17;;;16.30;99.90;;;;;;5123930;27;20417;-37
2021/09/01 01:21:46;;;;;;;8.37;5.03;;;16.20;99.90;;;;;;5126218;27;20460;-36
2021/09/01 01:24:12;;;;;;;9.20;4.60;;;16.20;99.90;;;;;;5127296;27;20404;-36
2021/09/01 01:26:38;;;;;;;10.10;5.27;;;16.30;99.90;;;;;;5126291;27;20944;-37
2021/09/01 01:29:09;;;;;;;9.33;5.17;;;16.20;99.90;;;;;;5126721;27;20175;-36
2021/09/01 01:31:37;;;;;;;9.83;4.90;;;16.20;99.90;;;;;;5111952;28;20187;-36
2021/09/01 01:34:03;;;;;;;10.50;4.83;;;16.20;99.90;;;;;;5126460;28;20799;-36
2021/09/01 01:36:29;;;;;;;6.67;4.60;;;16.30;99.90;;;;;;5125508;27;20428;-37
2021/09/01 01:38:54;;;;;;;9.03;5.00;;;16.20;99.90;;;;;;5126325;28;20412;-36
2021/09/01 01:41:20;;;;;;;7.87;4.10;;;16.30;99.90;;;;;;5126185;28;20721;-36
2021/09/01 01:43:47;;;;;;;9.93;5.13;;;16.20;99.90;;;;;;5126104;28;20340;-36
2021/09/01 01:46:14;;;;;;;6.27;3.97;;;16.20;99.90;;;;;;5116594;28;20232;-36
2021/09/01 01:48:40;;;;;;;6.50;4.43;;;16.30;99.90;;;;;;5123815;28;20488;-36
2021/09/01 01:51:05;;;;;;;8.27;4.93;;;16.30;99.90;;;;;;5125515;28;20424;-37
2021/09/01 01:53:31;;;;;;;5.73;4.43;;;16.20;99.90;;;;;;5126248;28;20419;-37
2021/09/01 01:55:57;;;;;;;9.07;4.70;;;16.30;99.90;;;;;;5126287;28;20187;-37
2021/09/01 01:58:23;;;;;;;9.27;5.17;;;16.30;99.90;;;;;;5126363;28;20880;-36
2021/09/01 02:00:49;;;;;;;6.00;3.90;;;16.30;99.90;;;;;;5117797;28;20460;-38
2021/09/01 02:03:16;;;;;;;8.93;4.93;;;16.30;99.90;;;;;;5122403;28;20191;-37
2021/09/01 02:05:42;;;;;;;7.73;5.33;;;16.30;99.90;;;;;;5123149;28;20945;-38
2021/09/01 02:08:08;;;;;;;10.90;6.50;;;16.30;99.90;;;;;;5125973;28;20432;-37
2021/09/01 02:10:34;;;;;;;9.40;5.33;;;16.30;99.90;;;;;;5126246;28;20183;-37
2021/09/01 02:12:59;;;;;;;12.23;5.37;;;16.30;99.90;;;;;;5125560;28;20171;-38
2021/09/01 02:15:25;;;;;;;8.13;4.80;;;16.30;99.90;;;;;;5108873;28;20284;-37
2021/09/01 02:17:51;;;;;;;5.47;4.97;;;16.20;99.90;;;;;;5120692;28;20184;-37
2021/09/01 02:20:17;;;;;;;7.33;5.07;;;16.30;99.90;;;;;;5125810;28;20228;-37
2021/09/01 02:22:43;;;;;;;8.07;5.03;;;16.20;99.90;;;;;;5125796;28;20286;-37
2021/09/01 02:25:11;;;;;;;11.67;5.50;;;16.30;99.90;;;;;;5125750;28;20421;-37
2021/09/01 02:27:37;;;;;;;6.73;4.60;;;16.20;99.90;;;;;;5126072;28;20421;-38
2021/09/01 02:30:04;;;;;;;10.80;5.10;;;16.20;99.90;;;;;;5122064;28;20425;-37
2021/09/01 02:32:30;;;;;;;11.67;5.47;;;16.20;99.90;;;;;;5122847;28;20848;-37
2021/09/01 02:34:56;;;;;;;9.00;5.70;;;16.20;99.90;;;;;;5125889;28;20478;-37
2021/09/01 02:37:22;;;;;;;8.03;5.07;;;16.20;99.90;;;;;;5126217;28;20201;-37
2021/09/01 02:39:48;;;;;;;9.73;6.07;;;16.20;99.90;;;;;;5125442;28;20282;-37
2021/09/01 02:42:13;;;;;;;10.53;6.17;;;16.20;99.90;;;;;;5125497;28;20463;-37
2021/09/01 02:44:39;;;;;;;10.90;5.57;;;16.20;99.90;;;;;;5107542;28;20275;-37
2021/09/01 02:47:05;;;;;;;9.07;5.03;;;16.20;99.90;;;;;;5115717;27;20626;-37
2021/09/01 02:49:30;;;;;;;7.50;5.03;;;16.20;99.90;;;;;;5126075;27;20183;-37
2021/09/01 02:51:56;;;;;;;7.43;5.67;;;16.20;99.90;;;;;;5129185;27;20525;-37
2021/09/01 02:54:22;;;;;;;9.77;5.37;;;16.20;99.90;;;;;;5128955;27;20191;-37
2021/09/01 02:56:48;;;;;;;10.93;5.00;;;16.10;99.90;;;;;;5129301;27;20191;-37
2021/09/01 02:59:13;;;;;;;11.13;5.03;;;16.20;99.90;;;;;;5129344;27;20179;-37
2021/09/01 03:01:40;;;;;;;8.97;5.90;;;16.20;99.90;;;;;;5117571;27;20414;-37
2021/09/01 03:04:05;;;;;;;6.73;4.97;;;16.20;99.90;;;;;;5122899;27;20172;-37
2021/09/01 03:06:31;;;;;;;6.50;5.10;;;16.10;99.90;;;;;;5127533;27;20413;-37
2021/09/01 03:08:57;;;;;;;11.07;4.93;;;16.10;99.90;;;;;;5128595;27;20715;-37
2021/09/01 03:11:22;;;;;;;8.60;5.40;;;16.10;99.90;;;;;;5128848;27;20187;-37
2021/09/01 03:13:48;;;;;;;10.73;5.17;;;16.10;99.90;;;;;;5122743;27;20646;-37
2021/09/01 03:16:14;;;;;;;8.27;5.60;;;16.10;99.90;;;;;;5107365;27;20194;-36
2021/09/01 03:18:40;;;;;;;9.20;5.40;;;16.10;99.90;;;;;;5128447;27;20187;-37
2021/09/01 03:21:06;;;;;;;9.47;5.27;;;16.10;99.90;;;;;;5128681;27;20208;-38
2021/09/01 03:23:32;;;;;;;9.20;5.37;;;16.00;99.90;;;;;;5128364;27;20714;-37
2021/09/01 03:25:58;;;;;;;10.93;5.87;;;16.00;99.90;;;;;;5128963;27;20419;-38
2021/09/01 03:28:23;;;;;;;8.10;5.00;;;16.00;99.90;;;;;;5128773;27;20412;-37
2021/09/01 03:30:49;;;;;;;8.57;5.40;;;16.00;99.90;;;;;;5123230;27;20179;-37
2021/09/01 03:33:15;;;;;;;10.43;5.40;;;16.00;99.90;;;;;;5099743;27;20274;-37
2021/09/01 03:35:40;;;;;;;7.10;5.13;;;16.00;99.90;;;;;;5127396;27;20190;-37
2021/09/01 03:38:06;;;;;;;7.57;5.30;;;16.00;99.90;;;;;;5128105;27;20276;-37
2021/09/01 03:40:32;;;;;;;9.93;5.30;;;16.00;99.90;;;;;;5128684;27;20433;-37
2021/09/01 03:42:57;;;;;;;9.47;5.73;;;16.00;99.90;;;;;;5128038;27;20187;-37
2021/09/01 03:45:23;;;;;;;11.30;5.27;;;16.00;99.90;;;;;;5127816;27;20213;-37
2021/09/01 03:47:49;;;;;;;10.40;5.03;;;16.00;99.90;;;;;;5115444;27;20672;-38
2021/09/01 03:50:14;;;;;;;11.13;5.90;;;16.00;99.90;;;;;;5128519;27;20679;-37
2021/09/01 03:52:40;;;;;;;8.33;5.33;;;15.90;99.90;;;;;;5127652;27;20263;-37
2021/09/01 03:55:09;;;;;;;6.43;4.40;;;15.90;99.90;;;;;;5128491;27;20455;-37
2021/09/01 03:57:36;;;;;;;8.00;5.10;;;15.90;99.90;;;;;;5128199;27;20186;-37
2021/09/01 04:00:07;;;;;;;7.00;5.33;;;15.90;99.90;;;;;;5127740;27;20466;-37
2021/09/01 04:02:33;;;;;;;8.80;5.30;;;15.90;99.90;;;;;;5117478;27;20476;-37
2021/09/01 04:04:59;;;;;;;8.03;5.80;;;15.90;99.90;;;;;;5128153;27;20793;-37
2021/09/01 04:07:25;;;;;;;11.20;5.40;;;15.90;99.90;;;;;;5127221;27;21287;-37
2021/09/01 04:09:50;;;;;;;6.80;5.60;;;15.90;99.90;;;;;;5127907;27;20201;-37
2021/09/01 04:12:16;;;;;;;8.47;5.53;;;15.80;99.90;;;;;;5127685;27;20197;-37
2021/09/01 04:14:41;;;;;;;7.73;5.30;;;15.80;99.90;;;;;;5114585;27;20191;-37
2021/09/01 04:17:07;;;;;;;7.37;5.33;;;15.80;99.90;;;;;;5108878;27;20194;-37
2021/09/01 04:19:33;;;;;;;7.70;5.20;;;15.80;99.90;;;;;;5127281;27;20187;-37
2021/09/01 04:21:58;;;;;;;7.50;5.17;;;15.80;99.90;;;;;;5125764;27;20207;-37
2021/09/01 04:24:24;;;;;;;11.03;5.50;;;15.80;99.90;;;;;;5127690;27;20195;-37
2021/09/01 04:26:50;;;;;;;8.20;6.23;;;15.80;99.90;;;;;;5127420;27;20195;-37
2021/09/01 04:29:16;;;;;;;7.30;5.03;;;15.80;99.90;;;;;;5127940;27;20216;-37
2021/09/01 04:31:42;;;;;;;7.37;5.30;;;15.70;99.90;;;;;;5121895;27;20255;-37
2021/09/01 04:34:08;;;;;;;11.30;5.17;;;15.70;99.90;;;;;;5123037;27;20915;-37
2021/09/01 04:36:34;;;;;;;7.50;5.40;;;15.70;99.90;;;;;;5126701;27;20573;-37
2021/09/01 04:38:59;;;;;;;7.83;4.93;;;15.70;99.90;;;;;;5109213;27;20669;-37
2021/09/01 04:41:25;;;;;;;7.63;4.93;;;15.70;99.90;;;;;;5126701;27;20541;-37
2021/09/01 04:43:51;;;;;;;7.33;5.03;;;15.70;99.90;;;;;;5127857;27;20175;-37
2021/09/01 04:46:17;;;;;;;8.20;5.10;;;15.80;99.90;;;;;;5121641;27;20207;-37
2021/09/01 04:48:42;;;;;;;8.30;5.43;;;15.80;99.90;;;;;;5119384;27;20293;-37
2021/09/01 04:51:08;;;;;;;11.57;6.07;;;15.70;99.90;;;;;;5126732;27;20187;-37
2021/09/01 04:53:34;;;;;;;6.57;4.93;;;15.70;99.90;;;;;;5126875;27;20729;-37
2021/09/01 04:55:59;;;;;;;10.03;5.00;;;15.60;99.90;;;;;;5126530;27;20673;-37
2021/09/01 04:58:25;;;;;;;8.07;5.47;;;15.70;99.90;;;;;;5108688;27;20271;-37
2021/09/01 05:00:51;;;;;;;6.13;4.80;;;15.70;99.90;;;;;;5107892;27;20237;-37
2021/09/01 05:03:16;;;;;;;11.13;5.30;;;15.60;99.90;;;;;;5115946;27;20205;-37
2021/09/01 05:05:42;;;;;;;11.57;4.73;;;15.70;99.90;;;;;;5126339;27;20266;-37
2021/09/01 05:08:08;;;;;;;7.80;5.17;;;15.70;99.90;;;;;;5126673;27;20552;-37
2021/09/01 05:10:33;;;;;;;6.97;4.60;;;15.70;99.90;;;;;;5126486;27;20187;-37
2021/09/01 05:12:59;;;;;;;8.30;5.27;;;15.60;99.90;;;;;;5126180;27;20179;-37
2021/09/01 05:15:24;;;;;;;11.53;5.20;;;15.80;99.90;;;;;;5108953;27;20188;-38
2021/09/01 05:17:50;;;;;;;9.53;6.10;;;15.70;99.90;;;;;;5115822;27;20240;-37
2021/09/01 05:20:16;;;;;;;12.17;5.63;;;15.70;99.90;;;;;;5123597;27;20176;-37
2021/09/01 05:22:48;;;;;;;7.07;5.20;;;15.70;99.90;;;;;;5126240;27;20579;-38
2021/09/01 05:25:16;;;;;;;9.13;5.30;;;15.70;99.90;;;;;;5123396;27;20425;-37
2021/09/01 05:27:44;;;;;;;8.63;5.30;;;15.70;99.90;;;;;;5125706;27;20421;-37
2021/09/01 05:30:15;;;;;;;6.13;4.50;;;15.70;99.90;;;;;;5127115;27;20508;-37
2021/09/01 05:32:43;;;;;;;7.47;4.83;;;15.70;99.90;;;;;;5116001;27;20532;-37
2021/09/01 05:35:10;;;;;;;10.60;5.33;;;15.70;99.90;;;;;;5126151;28;20428;-37
2021/09/01 05:37:37;;;;;;;8.17;5.60;;;15.70;99.90;;;;;;5112579;28;20426;-37
2021/09/01 05:40:06;;;;;;;9.80;5.17;;;15.70;99.90;;;;;;5126272;28;20503;-37
2021/09/01 05:42:32;;;;;;;7.30;5.10;;;15.70;99.90;;;;;;5126165;28;20460;-38
2021/09/01 05:44:59;;;;;;;8.23;5.20;;;15.60;99.90;;;;;;5126418;28;20981;-36
2021/09/01 05:47:26;;;;;;;8.70;5.30;;;15.70;99.90;;;;;;5115186;28;20430;-37
2021/09/01 05:49:55;;;;;;;8.10;5.67;;;15.70;99.90;;;;;;5119697;28;20465;-37
2021/09/01 05:52:21;;;;;;;8.57;6.37;;;15.70;99.90;;;;;;5126582;28;20409;-37
2021/09/01 05:54:52;;;;;;;13.00;5.83;;;15.70;99.90;;;;;;5126571;28;20408;-37
2021/09/01 05:57:20;;;;;;;7.63;5.20;;;15.70;99.90;;;;;;5107833;28;20501;-37
2021/09/01 05:59:55;;;;;;;9.17;5.00;;;15.70;99.90;;;;;;5126166;28;20444;-37
2021/09/01 06:02:39;;;;;;;7.03;4.67;;;15.60;99.90;;;;;;5122155;28;20468;-37
2021/09/01 06:05:06;;;;;;;7.70;5.43;;;15.70;99.90;;;;;;5121468;28;20416;-37
2021/09/01 06:07:33;;;;;;;10.37;5.00;;;15.70;99.90;;;;;;5124896;28;20436;-37
2021/09/01 06:10:00;;;;;;;8.50;5.03;;;15.70;99.90;;;;;;5126032;28;20445;-36
2021/09/01 06:12:28;;;;;;;6.83;5.10;;;15.70;99.90;;;;;;5111962;28;20419;-37
2021/09/01 06:14:54;;;;;;;7.10;5.20;;;15.80;99.90;;;;;;5113773;28;20925;-37
2021/09/01 06:17:20;;;;;;;10.13;5.30;;;15.80;99.90;;;;;;5106826;28;20425;-37
2021/09/01 06:19:46;;;;;;;11.33;5.90;;;15.80;99.90;;;;;;5103064;28;20417;-37
2021/09/01 06:22:13;;;;;;;9.50;5.50;;;15.80;99.90;;;;;;5126117;27;20271;-37
2021/09/01 06:24:40;;;;;;;9.47;4.90;;;15.80;99.90;;;;;;5130102;27;20818;-37
2021/09/01 06:27:06;;;;;;;13.07;5.47;;;15.80;99.90;;;;;;5129340;27;20515;-36
2021/09/01 06:29:31;;;;;;;8.00;5.83;;;15.80;99.90;;;;;;5129840;27;20420;-36
2021/09/01 06:31:57;;;;;;;12.00;5.90;;;15.80;99.90;;;;;;5125254;27;20433;-36
2021/09/01 06:34:23;;;;;;;6.97;5.33;;;15.90;99.90;;;;;;5126482;27;20542;-37
2021/09/01 06:36:49;;;;;;;12.07;6.33;;;15.90;99.90;;;;;;5129414;27;20329;-37
2021/09/01 06:39:15;;;;;;;7.87;5.90;;;15.90;99.90;;;;;;5129647;27;20183;-37
2021/09/01 06:41:41;;;;;;;9.30;5.63;;;15.90;99.90;;;;;;5128060;27;20213;-37
2021/09/01 06:44:07;;;;;;;10.97;6.07;;;15.80;99.90;;;;;;5126582;27;20421;-36
2021/09/01 06:46:32;;;;;;;7.20;6.10;;;15.90;99.90;;;;;;5128977;27;20420;-37
2021/09/01 06:48:58;;;;;;;9.63;6.60;;;15.90;99.90;;;;;;5123462;27;20187;-36
2021/09/01 06:51:24;;;;;;;9.53;6.40;;;15.90;99.90;;;;;;5109732;27;20214;-37
2021/09/01 06:53:50;;;;;;;9.60;6.33;;;15.90;99.90;;;;;;5129683;27;20424;-37
2021/09/01 06:56:15;;;;;;;13.20;7.13;;;15.90;99.90;;;;;;5129036;27;20604;-37
2021/09/01 06:58:41;;;;;;;11.30;6.60;;;15.90;99.90;;;;;;5114383;27;20590;-37
2021/09/01 07:01:07;;;;;;;13.23;6.80;;;15.90;99.90;;;;;;5090490;28;20258;-37
2021/09/01 07:03:32;;;;;;;7.93;6.80;;;15.90;99.90;;;;;;5110860;27;20234;-37
2021/09/01 07:05:58;;;;;;;9.20;6.73;;;15.90;99.90;;;;;;5129121;27;20229;-37
2021/09/01 07:08:23;;;;;;;11.00;8.07;;;15.90;99.90;;;;;;5129017;27;20195;-37
2021/09/01 07:10:50;;;;;;;9.20;6.83;;;15.90;99.90;;;;;;5129789;27;20191;-37
2021/09/01 07:13:16;;;;;;;14.63;7.23;;;16.00;99.90;;;;;;5127940;27;20222;-37
2021/09/01 07:15:43;;;;;;;9.67;7.20;;;16.00;99.90;;;;;;5108781;28;20932;-37
2021/09/01 07:18:09;;;;;;;8.70;6.37;;;16.00;99.90;;;;;;5115011;27;20453;-37
2021/09/01 07:20:36;;;;;;;9.20;5.87;;;16.00;99.90;;;;;;5127442;27;20457;-37
2021/09/01 07:23:02;;;;;;;8.97;6.13;;;16.00;99.90;;;;;;5127099;27;20805;-37
2021/09/01 07:25:28;;;;;;;8.40;4.97;;;16.10;99.90;;;;;;5128958;27;20421;-37
2021/09/01 07:27:54;;;;;;;11.30;6.10;;;16.00;99.90;;;;;;5109938;27;20195;-37
2021/09/01 07:30:19;;;;;;;7.83;5.60;;;16.00;99.90;;;;;;5128326;27;20405;-37
2021/09/01 07:32:45;;;;;;;8.80;5.23;;;16.10;99.90;;;;;;5122104;27;20187;-37
2021/09/01 07:35:11;;;;;;;8.70;5.37;;;16.10;99.90;;;;;;5125833;27;20260;-37
2021/09/01 07:37:49;;;;;;;9.60;5.60;;;16.10;99.90;;;;;;5124674;27;20183;-37
2021/09/01 07:40:19;;;;;;;8.40;5.57;;;16.10;99.90;;;;;;5118234;27;20425;-36
2021/09/01 07:42:44;;;;;;;9.07;5.53;;;16.10;99.90;;;;;;5128246;27;20728;-37
2021/09/01 07:45:12;;;;;;;11.73;5.50;;;16.00;99.90;;;;;;5128482;27;20802;-36
2021/09/01 07:47:48;;;;;;;8.23;5.97;;;16.00;99.90;;;;;;5124044;27;20191;-36
2021/09/01 07:50:14;;;;;;;9.30;6.00;;;16.00;99.90;;;;;;5124347;27;20774;-37
2021/09/01 07:52:40;;;;;;;8.13;5.80;;;16.10;99.90;;;;;;5126120;27;20434;-36
2021/09/01 07:55:06;;;;;;;9.40;5.60;;;16.10;99.90;;;;;;5109938;27;20511;-37
2021/09/01 07:57:31;;;;;;;10.20;6.50;;;16.10;99.90;;;;;;5127832;27;20198;-36
2021/09/01 07:59:57;;;;;;;9.43;5.90;;;16.20;99.90;;;;;;5128393;27;20416;-36
2021/09/01 08:02:23;;;;;;;8.17;5.07;;;16.20;99.90;;;;;;5125948;27;20237;-36
2021/09/01 08:04:48;;;;;;;10.73;5.10;;;16.10;99.90;;;;;;5120562;27;20182;-37
2021/09/01 08:07:14;;;;;;;10.00;5.57;;;16.10;99.90;;;;;;5127721;27;20194;-36
2021/09/01 08:09:40;;;;;;;9.93;5.43;;;16.20;99.90;;;;;;5128336;27;20183;-37
2021/09/01 08:12:06;;;;;;;7.67;5.17;;;16.20;99.90;;;;;;5109097;27;20195;-36
2021/09/01 08:14:32;;;;;;;10.07;5.20;;;16.10;99.90;;;;;;5116843;27;20211;-37
2021/09/01 08:16:57;;;;;;;7.90;4.63;;;16.10;99.90;;;;;;5106042;28;20445;-37
2021/09/01 08:19:23;;;;;;;7.80;4.80;;;16.10;99.90;;;;;;5090807;27;20629;-36
2021/09/01 08:21:49;;;;;;;8.00;4.77;;;16.10;99.90;;;;;;5125387;27;20208;-37
2021/09/01 08:24:14;;;;;;;9.27;4.57;;;16.10;99.90;;;;;;5128041;27;20551;-36
2021/09/01 08:26:40;;;;;;;10.43;5.10;;;16.20;99.90;;;;;;5127363;27;20194;-37
2021/09/01 08:29:06;;;;;;;8.50;5.40;;;16.20;99.90;;;;;;5109502;27;20208;-37
2021/09/01 08:31:31;;;;;;;7.00;5.27;;;16.20;99.90;;;;;;5127248;27;20247;-36
2021/09/01 08:33:57;;;;;;;7.47;5.23;;;16.20;99.90;;;;;;5116674;27;20244;-37
2021/09/01 08:36:23;;;;;;;8.07;5.40;;;16.20;99.90;;;;;;5125047;27;20679;-37
2021/09/01 08:38:48;;;;;;;11.20;5.67;;;16.30;99.90;;;;;;5127364;27;20274;-36
2021/09/01 08:41:16;;;;;;;7.80;4.70;;;16.30;99.90;;;;;;5127599;27;20761;-37
2021/09/01 08:43:42;;;;;;;5.47;4.57;;;16.30;99.90;;;;;;5127068;27;20569;-37
2021/09/01 08:46:08;;;;;;;5.70;4.00;;;16.30;99.90;;;;;;5127307;27;20447;-36
2021/09/01 08:48:38;;;;;;;7.80;4.73;;;16.30;99.90;;;;;;5121844;27;20423;-36
2021/09/01 08:51:04;;;;;;;8.00;4.90;;;16.30;99.90;;;;;;5127069;27;20187;-37
2021/09/01 08:53:29;;;;;;;5.30;4.60;;;16.30;99.90;;;;;;5126779;27;20435;-36
2021/09/01 08:55:55;;;;;;;6.93;4.80;;;16.30;99.90;;;;;;5127087;27;20794;-36
2021/09/01 08:58:21;;;;;;;7.60;5.83;;;16.30;99.90;;;;;;5127071;27;20233;-36
2021/09/01 09:00:46;;;;;;;6.00;5.10;;;16.30;99.90;;;;;;5127133;27;20205;-37
2021/09/01 09:03:12;;;;;;;6.10;4.40;;;16.30;99.90;;;;;;5121961;27;20183;-36
2021/09/01 09:05:41;;;;;;;8.90;5.03;;;16.30;99.90;;;;;;5121233;27;20183;-36
2021/09/01 09:08:08;;;;;;;11.00;4.50;;;16.30;99.90;;;;;;5124352;27;20291;-37
2021/09/01 09:10:42;;;;;;;7.23;5.27;;;16.30;99.90;;;;;;5127051;27;20417;-36
2021/09/01 09:13:14;;;;;;;7.13;5.30;;;16.30;99.90;;;;;;5126902;27;20781;-36
2021/09/01 09:15:42;;;;;;;6.93;4.90;;;16.30;99.90;;;;;;5113256;27;20787;-36
2021/09/01 09:18:29;;;;;;;7.10;4.73;;;16.40;99.90;;;;;;5123097;27;20424;-37
2021/09/01 09:21:15;;;;;;;6.23;4.20;;;16.40;99.90;;;;;;5120179;27;20798;-37
2021/09/01 09:23:41;;;;;;;6.30;4.10;;;16.40;99.90;;;;;;5125713;27;20439;-36
2021/09/01 09:26:28;;;;;;;6.27;4.50;;;16.40;99.90;;;;;;5126250;27;20489;-37
2021/09/01 09:29:09;;;;;;;6.20;3.90;;;16.50;99.90;;;;;;5126686;27;20969;-36
2021/09/01 09:31:36;;;;;;;6.40;3.90;;;16.50;99.90;;;;;;5126333;27;20421;-36
2021/09/01 09:34:10;;;;;;;6.50;4.60;;;16.50;99.90;;;;;;5119137;27;20589;-37
2021/09/01 09:36:37;;;;;;;8.20;5.00;;;16.50;99.90;;;;;;5125341;27;20408;-36
2021/09/01 09:39:04;;;;;;;6.60;4.30;;;16.60;99.90;;;;;;5126301;28;20484;-37
2021/09/01 09:41:30;;;;;;;6.60;4.83;;;16.60;99.90;;;;;;5112685;28;20802;-36
2021/09/01 09:43:58;;;;;;;6.90;4.83;;;16.60;99.90;;;;;;5126418;28;20424;-37
2021/09/01 09:46:25;;;;;;;7.47;4.80;;;16.60;99.90;;;;;;5126136;28;20574;-37
2021/09/01 09:48:52;;;;;;;6.93;4.37;;;16.60;99.90;;;;;;5119782;28;20456;-37
2021/09/01 09:51:34;;;;;;;5.60;4.13;;;16.60;99.90;;;;;;5125404;28;20420;-36
2021/09/01 09:54:23;;;;;;;8.23;4.40;;;16.70;99.90;;;;;;5126272;28;20424;-36
2021/09/01 09:56:50;;;;;;;10.87;5.93;;;16.70;99.90;;;;;;5125928;27;20794;-36
2021/09/01 09:59:17;;;;;;;6.77;4.20;;;16.70;99.90;;;;;;5111921;27;20420;-36
2021/09/01 10:01:44;;;;;;;4.90;4.07;;;16.70;99.90;;;;;;5129780;27;21131;-37
2021/09/01 10:04:10;;;;;;;8.60;4.57;;;16.70;99.90;;;;;;5123417;27;20437;-37
2021/09/01 10:06:35;;;;;;;11.27;5.20;;;16.60;99.90;;;;;;5129450;27;20973;-36
2021/09/01 10:09:04;;;;;;;11.90;5.50;;;16.70;99.90;;;;;;5111730;27;20647;-37
2021/09/01 10:11:32;;;;;;;9.63;5.97;;;16.70;99.90;;;;;;5129852;27;20187;-36
2021/09/01 10:13:58;;;;;;;7.93;4.60;;;16.70;99.90;;;;;;5122761;27;20536;-37
2021/09/01 10:16:33;;;;;;;6.63;4.23;;;16.70;99.90;;;;;;5108475;28;20883;-37
2021/09/01 10:19:00;;;;;;;18.07;7.53;;;16.70;99.90;;;;;;5111598;27;20183;-37
2021/09/01 10:21:29;;;;;;;8.73;5.03;;;16.70;99.90;;;;;;5124990;27;20796;-37
2021/09/01 10:23:55;;;;;;;6.87;4.67;;;16.70;99.90;;;;;;5130152;27;20929;-36
2021/09/01 10:26:30;;;;;;;14.13;6.43;;;16.70;99.90;;;;;;5129768;27;20419;-37
2021/09/01 10:28:57;;;;;;;13.63;7.10;;;16.70;99.90;;;;;;5130531;27;20294;-37
2021/09/01 10:31:32;;;;;;;10.50;6.73;;;16.70;99.90;;;;;;5129816;27;20487;-36
2021/09/01 10:34:21;;;;;;;7.23;4.53;;;16.80;99.90;;;;;;5124545;27;20476;-38
2021/09/01 10:36:52;;;;;;;11.67;5.83;;;16.80;99.90;;;;;;5113486;27;20473;-36
2021/09/01 10:39:38;;;;;;;9.60;5.43;;;16.70;99.90;;;;;;5129308;27;20409;-36
2021/09/01 10:42:37;;;;;;;9.23;5.10;;;16.80;99.90;;;;;;5128960;27;20551;-37
2021/09/01 10:45:05;;;;;;;6.80;5.30;;;16.70;99.90;;;;;;5118539;27;20408;-36
2021/09/01 10:47:49;;;;;;;7.50;5.70;;;16.80;99.90;;;;;;5128960;27;20425;-36
2021/09/01 10:50:15;;;;;;;6.83;4.93;;;16.80;99.90;;;;;;5118363;27;20500;-36
2021/09/01 10:53:21;;;;;;;7.03;5.00;;;16.80;99.90;;;;;;5129170;27;20481;-37
2021/09/01 10:55:46;;;;;;;7.33;4.57;;;16.80;99.90;;;;;;5097792;27;20439;-36
2021/09/01 10:58:21;;;;;;;11.17;5.70;;;16.80;99.90;;;;;;5129435;27;20417;-36
2021/09/01 11:00:56;;;;;;;6.80;5.50;;;16.90;99.90;;;;;;5129583;27;20621;-37
2021/09/01 11:03:39;;;;;;;11.80;6.50;;;16.90;99.90;;;;;;5128872;27;20413;-36
2021/09/01 11:06:17;;;;;;;11.10;7.10;;;16.90;99.90;;;;;;5120029;27;20451;-36
2021/09/01 11:09:05;;;;;;;12.53;5.63;;;16.90;99.90;;;;;;5124258;27;20425;-36
2021/09/01 11:11:54;;;;;;;9.80;5.80;;;16.90;99.90;;;;;;5129150;27;20413;-36
2021/09/01 11:14:37;;;;;;;6.10;4.70;;;16.90;99.90;;;;;;5119524;27;20429;-37
2021/09/01 11:17:15;;;;;;;7.60;4.93;;;16.90;99.90;;;;;;5107585;28;20774;-36
2021/09/01 11:19:43;;;;;;;9.23;4.90;;;16.90;99.90;;;;;;5111500;27;20427;-36
2021/09/01 11:22:15;;;;;;;5.20;4.03;;;16.90;99.90;;;;;;5128856;27;20504;-37
2021/09/01 11:24:49;;;;;;;5.30;3.70;;;16.90;99.90;;;;;;5122857;27;20542;-36
2021/09/01 11:27:18;;;;;;;4.67;4.13;;;16.90;99.90;;;;;;5128937;27;20468;-37
2021/09/01 11:29:44;;;;;;;6.37;3.77;;;16.90;99.90;;;;;;5128531;27;21003;-37
2021/09/01 11:32:18;;;;;;;5.90;3.97;;;16.90;99.90;;;;;;5128452;27;20697;-36
2021/09/01 11:34:44;;;;;;;4.90;3.67;;;17.00;99.90;;;;;;5124103;27;20379;-37
2021/09/01 11:37:10;;;;;;;6.60;4.17;;;17.00;99.90;;;;;;5125378;27;20417;-36
2021/09/01 11:39:44;;;;;;;5.90;4.57;;;17.00;99.90;;;;;;5127837;27;20421;-36
2021/09/01 11:42:11;;;;;;;6.93;4.60;;;17.00;99.90;;;;;;5128209;27;20457;-36
2021/09/01 11:44:37;;;;;;;5.80;3.97;;;17.00;99.90;;;;;;5110166;27;20409;-36
2021/09/01 11:47:15;;;;;;;7.40;5.23;;;17.00;99.90;;;;;;5128124;27;20508;-36
2021/09/01 11:49:41;;;;;;;6.03;4.53;;;17.00;99.90;;;;;;5123299;27;21033;-37
2021/09/01 11:52:06;;;;;;;8.87;5.50;;;17.00;99.90;;;;;;5123246;27;20515;-37
2021/09/01 11:54:37;;;;;;;6.67;4.60;;;17.10;99.90;;;;;;5128565;27;20918;-36
2021/09/01 11:57:03;;;;;;;8.57;5.13;;;17.10;99.90;;;;;;5128155;27;20278;-36
2021/09/01 11:59:29;;;;;;;7.20;5.50;;;17.10;99.90;;;;;;5128308;27;20523;-36
2021/09/01 12:01:58;;;;;;;7.07;5.10;;;17.10;99.90;;;;;;5127419;27;20524;-36
2021/09/01 12:04:25;;;;;;;6.97;5.13;;;17.10;99.90;;;;;;5123963;27;20180;-37
2021/09/01 12:06:55;;;;;;;7.53;4.47;;;17.10;99.90;;;;;;5121227;27;20875;-36
2021/09/01 12:09:26;;;;;;;9.27;4.93;;;17.10;99.90;;;;;;5128084;27;20440;-37
2021/09/01 12:12:00;;;;;;;11.20;6.40;;;17.10;99.90;;;;;;5115629;27;20916;-36
2021/09/01 12:14:27;;;;;;;7.63;5.30;;;17.20;99.90;;;;;;5107064;27;20425;-36
2021/09/01 12:17:13;;;;;;;10.63;6.60;;;17.20;99.90;;;;;;5116034;27;20452;-36
2021/09/01 12:19:49;;;;;;;6.40;5.00;;;17.20;99.90;;;;;;5122887;27;20834;-36
2021/09/01 12:22:34;;;;;;;6.90;5.17;;;17.20;99.90;;;;;;5122642;27;20463;-36
2021/09/01 12:25:19;;;;;;;8.40;5.90;;;17.30;99.90;;;;;;5121653;27;20469;-37
2021/09/01 12:28:08;;;;;;;6.57;5.60;;;17.40;99.90;;;;;;5126539;27;20820;-37
2021/09/01 12:30:36;;;;;;;10.57;7.20;;;17.40;99.90;;;;;;5116564;27;20490;-37
2021/09/01 12:33:10;;;;;;;12.10;9.20;;;17.40;99.90;;;;;;5104515;28;20430;-36
2021/09/01 12:35:36;;;;;;;13.77;8.97;;;17.40;99.90;;;;;;5105385;27;20508;-36
2021/09/01 12:38:04;;;;;;;12.03;9.53;;;17.40;99.90;;;;;;5122298;27;20424;-36
2021/09/01 12:40:32;;;;;;;12.03;7.60;;;17.40;99.90;;;;;;5126937;27;20568;-36
2021/09/01 12:43:07;;;;;;;15.33;9.53;;;17.40;99.90;;;;;;5125896;27;20826;-36
2021/09/01 12:45:35;;;;;;;12.47;8.60;;;17.40;99.90;;;;;;5108176;27;20898;-36
2021/09/01 12:48:09;;;;;;;13.73;8.60;;;17.40;99.90;;;;;;5126595;27;20416;-37